sensor_id;sensor_type;location;lat;lon;timestamp;temperature;humidity
14006;DHT22;7078;51.542;7.314;2022-08-19T00:00:28;17.70;99.90
14006;DHT22;7078;51.542;7.314;2022-08-19T00:02:54;17.70;99.90
14006;DHT22;7078;51.542;7.314;2022-08-19T00:05:21;17.80;99.90
14006;DHT22;7078;51.542;7.314;2022-08-19T00:07:47;17.80;99.90
14006;DHT22;7078;51.542;7.314;2022-08-19T00:10:15;17.60;99.90
14006;DHT22;7078;51.542;7.314;2022-08-19T00:12:41;17.70;99.90
14006;DHT22;7078;51.542;7.314;2022-08-19T00:15:10;17.90;99.90
14006;DHT22;7078;51.542;7.314;2022-08-19T00:17:41;17.70;99.90
14006;DHT22;7078;51.542;7.314;2022-08-19T00:20:13;17.70;99.90
14006;DHT22;7078;51.542;7.314;2022-08-19T00:22:39;17.60;99.90
14006;DHT22;7078;51.542;7.314;2022-08-19T00:25:07;17.60;99.90
14006;DHT22;7078;51.542;7.314;2022-08-19T00:27:33;17.60;99.90
14006;DHT22;7078;51.542;7.314;2022-08-19T00:29:59;17.60;99.90
14006;DHT22;7078;51.542;7.314;2022-08-19T00:32:25;17.60;99.90
14006;DHT22;7078;51.542;7.314;2022-08-19T00:38:14;17.50;99.90
14006;DHT22;7078;51.542;7.314;2022-08-19T00:40:43;17.50;99.90
14006;DHT22;7078;51.542;7.314;2022-08-19T00:43:12;17.40;99.90
14006;DHT22;7078;51.542;7.314;2022-08-19T00:45:40;17.50;99.90
14006;DHT22;7078;51.542;7.314;2022-08-19T00:48:07;17.40;99.90
14006;DHT22;7078;51.542;7.314;2022-08-19T00:50:34;17.40;99.90
14006;DHT22;7078;51.542;7.314;2022-08-19T00:53:00;17.40;99.90
14006;DHT22;7078;51.542;7.314;2022-08-19T00:55:30;17.40;99.90
14006;DHT22;7078;51.542;7.314;2022-08-19T00:58:04;17.40;99.90
14006;DHT22;7078;51.542;7.314;2022-08-19T01:00:33;17.30;99.90
14006;DHT22;7078;51.542;7.314;2022-08-19T01:03:02;17.40;99.90
14006;DHT22;7078;51.542;7.314;2022-08-19T01:05:28;17.30;99.90
14006;DHT22;7078;51.542;7.314;2022-08-19T01:07:56;17.30;99.90
14006;DHT22;7078;51.542;7.314;2022-08-19T01:10:26;17.30;99.90
14006;DHT22;7078;51.542;7.314;2022-08-19T01:12:52;17.30;99.90
14006;DHT22;7078;51.542;7.314;2022-08-19T01:15:21;17.30;99.90
14006;DHT22;7078;51.542;7.314;2022-08-19T01:17:48;17.20;99.90
14006;DHT22;7078;51.542;7.314;2022-08-19T01:20:20;17.30;99.90
14006;DHT22;7078;51.542;7.314;2022-08-19T01:22:47;17.00;99.90
14006;DHT22;7078;51.542;7.314;2022-08-19T01:25:19;17.20;99.90
14006;DHT22;7078;51.542;7.314;2022-08-19T01:27:48;17.20;99.90
14006;DHT22;7078;51.542;7.314;2022-08-19T01:30:17;17.20;99.90
14006;DHT22;7078;51.542;7.314;2022-08-19T01:32:43;17.20;99.90
14006;DHT22;7078;51.542;7.314;2022-08-19T01:35:10;17.10;99.90
14006;DHT22;7078;51.542;7.314;2022-08-19T01:40:18;17.10;99.90
14006;DHT22;7078;51.542;7.314;2022-08-19T01:42:49;17.10;99.90
14006;DHT22;7078;51.542;7.314;2022-08-19T01:48:42;17.00;99.90
14006;DHT22;7078;51.542;7.314;2022-08-19T01:51:10;17.10;99.90
14006;DHT22;7078;51.542;7.314;2022-08-19T01:53:36;17.00;99.90
14006;DHT22;7078;51.542;7.314;2022-08-19T01:56:03;16.90;99.90
14006;DHT22;7078;51.542;7.314;2022-08-19T01:58:39;16.90;99.90
14006;DHT22;7078;51.542;7.314;2022-08-19T02:01:06;16.90;99.90
14006;DHT22;7078;51.542;7.314;2022-08-19T02:03:32;16.90;99.90
14006;DHT22;7078;51.542;7.314;2022-08-19T02:06:01;16.90;99.90
14006;DHT22;7078;51.542;7.314;2022-08-19T02:08:29;17.00;99.90
14006;DHT22;7078;51.542;7.314;2022-08-19T02:10:55;17.00;99.90
14006;DHT22;7078;51.542;7.314;2022-08-19T02:13:21;16.90;99.90
14006;DHT22;7078;51.542;7.314;2022-08-19T02:15:47;16.90;99.90
14006;DHT22;7078;51.542;7.314;2022-08-19T02:18:13;16.90;99.90
14006;DHT22;7078;51.542;7.314;2022-08-19T02:20:40;16.90;99.90
14006;DHT22;7078;51.542;7.314;2022-08-19T02:23:06;16.90;99.90
14006;DHT22;7078;51.542;7.314;2022-08-19T02:25:31;16.90;99.90
14006;DHT22;7078;51.542;7.314;2022-08-19T02:27:57;16.90;99.90
14006;DHT22;7078;51.542;7.314;2022-08-19T02:30:23;16.90;99.90
14006;DHT22;7078;51.542;7.314;2022-08-19T02:32:50;16.80;99.90
14006;DHT22;7078;51.542;7.314;2022-08-19T02:35:16;16.90;99.90
14006;DHT22;7078;51.542;7.314;2022-08-19T02:37:42;16.90;99.90
14006;DHT22;7078;51.542;7.314;2022-08-19T02:40:28;16.80;99.90
14006;DHT22;7078;51.542;7.314;2022-08-19T02:42:54;16.90;99.90
14006;DHT22;7078;51.542;7.314;2022-08-19T02:45:20;16.80;99.90
14006;DHT22;7078;51.542;7.314;2022-08-19T02:47:45;16.80;99.90
14006;DHT22;7078;51.542;7.314;2022-08-19T02:50:11;16.80;99.90
14006;DHT22;7078;51.542;7.314;2022-08-19T02:52:38;16.80;99.90
14006;DHT22;7078;51.542;7.314;2022-08-19T02:55:04;16.80;99.90
14006;DHT22;7078;51.542;7.314;2022-08-19T02:57:30;16.80;99.90
14006;DHT22;7078;51.542;7.314;2022-08-19T02:59:57;16.70;99.90
14006;DHT22;7078;51.542;7.314;2022-08-19T03:02:22;16.70;99.90
14006;DHT22;7078;51.542;7.314;2022-08-19T03:04:48;16.70;99.90
14006;DHT22;7078;51.542;7.314;2022-08-19T03:07:15;16.70;99.90
14006;DHT22;7078;51.542;7.314;2022-08-19T03:09:41;16.60;99.90
14006;DHT22;7078;51.542;7.314;2022-08-19T03:12:09;16.80;99.90
14006;DHT22;7078;51.542;7.314;2022-08-19T03:14:35;16.80;99.90
14006;DHT22;7078;51.542;7.314;2022-08-19T03:17:01;16.70;99.90
14006;DHT22;7078;51.542;7.314;2022-08-19T03:19:27;16.70;99.90
14006;DHT22;7078;51.542;7.314;2022-08-19T03:21:52;16.70;99.90
14006;DHT22;7078;51.542;7.314;2022-08-19T03:24:19;16.80;99.90
14006;DHT22;7078;51.542;7.314;2022-08-19T03:26:50;16.70;99.90
14006;DHT22;7078;51.542;7.314;2022-08-19T03:29:18;16.70;99.90
14006;DHT22;7078;51.542;7.314;2022-08-19T03:31:44;16.70;99.90
14006;DHT22;7078;51.542;7.314;2022-08-19T03:34:21;16.70;99.90
14006;DHT22;7078;51.542;7.314;2022-08-19T03:36:47;16.70;99.90
14006;DHT22;7078;51.542;7.314;2022-08-19T03:39:13;16.70;99.90
14006;DHT22;7078;51.542;7.314;2022-08-19T03:41:42;16.60;99.90
14006;DHT22;7078;51.542;7.314;2022-08-19T03:44:08;16.60;99.90
14006;DHT22;7078;51.542;7.314;2022-08-19T03:46:34;16.60;99.90
14006;DHT22;7078;51.542;7.314;2022-08-19T03:49:02;16.60;99.90
14006;DHT22;7078;51.542;7.314;2022-08-19T03:51:35;16.60;99.90
14006;DHT22;7078;51.542;7.314;2022-08-19T03:54:04;16.50;99.90
14006;DHT22;7078;51.542;7.314;2022-08-19T03:56:30;16.50;99.90
14006;DHT22;7078;51.542;7.314;2022-08-19T03:58:57;16.50;99.90
14006;DHT22;7078;51.542;7.314;2022-08-19T04:01:26;16.40;99.90
14006;DHT22;7078;51.542;7.314;2022-08-19T04:03:52;16.40;99.90
14006;DHT22;7078;51.542;7.314;2022-08-19T04:06:23;16.40;99.90
14006;DHT22;7078;51.542;7.314;2022-08-19T04:08:51;16.40;99.90
14006;DHT22;7078;51.542;7.314;2022-08-19T04:11:20;16.40;99.90
14006;DHT22;7078;51.542;7.314;2022-08-19T04:13:47;16.50;99.90
14006;DHT22;7078;51.542;7.314;2022-08-19T04:16:13;16.40;99.90
14006;DHT22;7078;51.542;7.314;2022-08-19T04:18:39;16.40;99.90
14006;DHT22;7078;51.542;7.314;2022-08-19T04:21:06;16.40;99.90
14006;DHT22;7078;51.542;7.314;2022-08-19T04:23:33;16.40;99.90
14006;DHT22;7078;51.542;7.314;2022-08-19T04:25:59;16.40;99.90
14006;DHT22;7078;51.542;7.314;2022-08-19T04:28:25;16.40;99.90
14006;DHT22;7078;51.542;7.314;2022-08-19T04:30:53;16.40;99.90
14006;DHT22;7078;51.542;7.314;2022-08-19T04:33:22;16.30;99.90
14006;DHT22;7078;51.542;7.314;2022-08-19T04:35:49;16.30;99.90
14006;DHT22;7078;51.542;7.314;2022-08-19T04:38:17;16.40;99.90
14006;DHT22;7078;51.542;7.314;2022-08-19T04:40:48;16.40;99.90
14006;DHT22;7078;51.542;7.314;2022-08-19T04:43:34;16.50;99.90
14006;DHT22;7078;51.542;7.314;2022-08-19T04:46:11;16.50;99.90
14006;DHT22;7078;51.542;7.314;2022-08-19T04:48:38;16.60;99.90
14006;DHT22;7078;51.542;7.314;2022-08-19T04:51:07;16.70;99.90
14006;DHT22;7078;51.542;7.314;2022-08-19T04:53:35;16.80;99.90
14006;DHT22;7078;51.542;7.314;2022-08-19T04:56:09;16.90;99.90
14006;DHT22;7078;51.542;7.314;2022-08-19T04:58:36;17.10;99.90
14006;DHT22;7078;51.542;7.314;2022-08-19T05:01:03;17.30;99.90
14006;DHT22;7078;51.542;7.314;2022-08-19T05:03:29;17.20;99.90
14006;DHT22;7078;51.542;7.314;2022-08-19T05:06:05;17.30;99.90
14006;DHT22;7078;51.542;7.314;2022-08-19T05:08:32;17.40;99.90
14006;DHT22;7078;51.542;7.314;2022-08-19T05:10:59;17.50;99.90
14006;DHT22;7078;51.542;7.314;2022-08-19T05:13:24;17.80;99.90
14006;DHT22;7078;51.542;7.314;2022-08-19T05:15:56;18.30;99.90
14006;DHT22;7078;51.542;7.314;2022-08-19T05:18:21;18.70;99.90
14006;DHT22;7078;51.542;7.314;2022-08-19T05:21:11;19.10;99.90
14006;DHT22;7078;51.542;7.314;2022-08-19T05:23:56;19.50;99.90
14006;DHT22;7078;51.542;7.314;2022-08-19T05:26:23;20.00;99.90
14006;DHT22;7078;51.542;7.314;2022-08-19T05:28:54;20.20;99.90
14006;DHT22;7078;51.542;7.314;2022-08-19T05:31:21;20.30;99.90
14006;DHT22;7078;51.542;7.314;2022-08-19T05:33:46;20.20;99.90
14006;DHT22;7078;51.542;7.314;2022-08-19T05:36:12;20.00;99.90
14006;DHT22;7078;51.542;7.314;2022-08-19T05:38:39;19.90;99.90
14006;DHT22;7078;51.542;7.314;2022-08-19T05:41:08;19.90;99.90
14006;DHT22;7078;51.542;7.314;2022-08-19T05:43:34;19.90;99.90
14006;DHT22;7078;51.542;7.314;2022-08-19T05:46:00;19.80;99.90
14006;DHT22;7078;51.542;7.314;2022-08-19T05:48:25;19.80;99.90
14006;DHT22;7078;51.542;7.314;2022-08-19T05:50:51;19.90;99.90
14006;DHT22;7078;51.542;7.314;2022-08-19T05:53:17;20.00;99.90
14006;DHT22;7078;51.542;7.314;2022-08-19T05:55:43;20.00;99.90
14006;DHT22;7078;51.542;7.314;2022-08-19T05:58:09;20.20;99.90
14006;DHT22;7078;51.542;7.314;2022-08-19T06:00:36;20.30;99.90
14006;DHT22;7078;51.542;7.314;2022-08-19T06:03:01;20.50;99.90
14006;DHT22;7078;51.542;7.314;2022-08-19T06:05:31;20.70;99.90
14006;DHT22;7078;51.542;7.314;2022-08-19T06:07:57;20.80;99.90
14006;DHT22;7078;51.542;7.314;2022-08-19T06:10:25;20.90;99.90
14006;DHT22;7078;51.542;7.314;2022-08-19T06:12:52;21.00;99.90
14006;DHT22;7078;51.542;7.314;2022-08-19T06:15:18;21.10;99.90
14006;DHT22;7078;51.542;7.314;2022-08-19T06:17:43;21.10;99.90
14006;DHT22;7078;51.542;7.314;2022-08-19T06:20:14;21.20;99.90
14006;DHT22;7078;51.542;7.314;2022-08-19T06:22:44;21.40;99.90
14006;DHT22;7078;51.542;7.314;2022-08-19T06:25:12;21.30;99.90
14006;DHT22;7078;51.542;7.314;2022-08-19T06:27:38;21.20;99.90
14006;DHT22;7078;51.542;7.314;2022-08-19T06:30:04;21.30;99.90
14006;DHT22;7078;51.542;7.314;2022-08-19T06:32:30;21.20;99.90
14006;DHT22;7078;51.542;7.314;2022-08-19T06:34:56;21.20;99.90
14006;DHT22;7078;51.542;7.314;2022-08-19T06:37:21;21.20;99.90
14006;DHT22;7078;51.542;7.314;2022-08-19T06:39:48;21.40;99.90
14006;DHT22;7078;51.542;7.314;2022-08-19T06:42:14;21.20;99.90
14006;DHT22;7078;51.542;7.314;2022-08-19T06:44:43;21.20;99.90
14006;DHT22;7078;51.542;7.314;2022-08-19T06:47:11;21.20;99.90
14006;DHT22;7078;51.542;7.314;2022-08-19T06:49:37;21.30;99.90
14006;DHT22;7078;51.542;7.314;2022-08-19T06:52:03;21.50;99.90
14006;DHT22;7078;51.542;7.314;2022-08-19T06:54:29;21.50;99.90
14006;DHT22;7078;51.542;7.314;2022-08-19T06:56:56;21.60;99.90
14006;DHT22;7078;51.542;7.314;2022-08-19T06:59:24;21.50;99.90
14006;DHT22;7078;51.542;7.314;2022-08-19T07:01:55;21.50;99.90
14006;DHT22;7078;51.542;7.314;2022-08-19T07:04:24;21.40;99.90
14006;DHT22;7078;51.542;7.314;2022-08-19T07:06:55;21.30;99.90
14006;DHT22;7078;51.542;7.314;2022-08-19T07:09:21;21.30;99.90
14006;DHT22;7078;51.542;7.314;2022-08-19T07:11:52;21.30;99.90
14006;DHT22;7078;51.542;7.314;2022-08-19T07:14:21;21.30;99.90
14006;DHT22;7078;51.542;7.314;2022-08-19T07:16:48;21.50;99.90
14006;DHT22;7078;51.542;7.314;2022-08-19T07:19:15;21.60;99.90
14006;DHT22;7078;51.542;7.314;2022-08-19T07:21:41;21.60;99.90
14006;DHT22;7078;51.542;7.314;2022-08-19T07:24:07;21.90;99.90
14006;DHT22;7078;51.542;7.314;2022-08-19T07:26:37;21.90;99.90
14006;DHT22;7078;51.542;7.314;2022-08-19T07:29:04;21.90;99.90
14006;DHT22;7078;51.542;7.314;2022-08-19T07:31:30;21.90;99.90
14006;DHT22;7078;51.542;7.314;2022-08-19T07:33:56;21.90;99.90
14006;DHT22;7078;51.542;7.314;2022-08-19T07:36:25;21.80;99.90
14006;DHT22;7078;51.542;7.314;2022-08-19T07:38:51;21.60;99.90
14006;DHT22;7078;51.542;7.314;2022-08-19T07:41:23;21.60;99.90
14006;DHT22;7078;51.542;7.314;2022-08-19T07:43:49;21.60;99.90
14006;DHT22;7078;51.542;7.314;2022-08-19T07:46:16;21.60;99.90
14006;DHT22;7078;51.542;7.314;2022-08-19T07:48:44;21.70;99.90
14006;DHT22;7078;51.542;7.314;2022-08-19T07:51:14;22.00;99.90
14006;DHT22;7078;51.542;7.314;2022-08-19T07:53:40;22.10;99.90
14006;DHT22;7078;51.542;7.314;2022-08-19T07:56:06;22.30;99.90
14006;DHT22;7078;51.542;7.314;2022-08-19T07:58:38;22.30;99.90
14006;DHT22;7078;51.542;7.314;2022-08-19T08:01:06;22.40;99.90
14006;DHT22;7078;51.542;7.314;2022-08-19T08:03:33;22.50;99.90
14006;DHT22;7078;51.542;7.314;2022-08-19T08:06:17;22.70;99.90
14006;DHT22;7078;51.542;7.314;2022-08-19T08:09:04;22.80;99.90
14006;DHT22;7078;51.542;7.314;2022-08-19T08:11:56;22.90;99.90
14006;DHT22;7078;51.542;7.314;2022-08-19T08:14:32;23.00;99.90
14006;DHT22;7078;51.542;7.314;2022-08-19T08:16:58;23.00;99.90
14006;DHT22;7078;51.542;7.314;2022-08-19T08:19:25;23.10;99.90
14006;DHT22;7078;51.542;7.314;2022-08-19T08:21:55;23.30;99.90
14006;DHT22;7078;51.542;7.314;2022-08-19T08:24:22;23.40;99.90
14006;DHT22;7078;51.542;7.314;2022-08-19T08:26:48;23.50;99.90
14006;DHT22;7078;51.542;7.314;2022-08-19T08:29:14;23.70;99.90
14006;DHT22;7078;51.542;7.314;2022-08-19T08:31:43;23.80;99.90
14006;DHT22;7078;51.542;7.314;2022-08-19T08:34:10;23.90;99.90
14006;DHT22;7078;51.542;7.314;2022-08-19T08:36:38;24.10;99.90
14006;DHT22;7078;51.542;7.314;2022-08-19T08:39:14;24.30;99.90
14006;DHT22;7078;51.542;7.314;2022-08-19T08:42:05;24.30;99.90
14006;DHT22;7078;51.542;7.314;2022-08-19T08:44:42;24.30;99.90
14006;DHT22;7078;51.542;7.314;2022-08-19T08:47:15;24.40;99.90
14006;DHT22;7078;51.542;7.314;2022-08-19T08:50:24;24.40;99.90
14006;DHT22;7078;51.542;7.314;2022-08-19T08:52:46;24.20;99.90
14006;DHT22;7078;51.542;7.314;2022-08-19T08:55:16;24.30;99.90
14006;DHT22;7078;51.542;7.314;2022-08-19T09:00:12;24.30;99.90
14006;DHT22;7078;51.542;7.314;2022-08-19T09:02:39;24.30;99.90
14006;DHT22;7078;51.542;7.314;2022-08-19T09:05:05;24.10;99.90
14006;DHT22;7078;51.542;7.314;2022-08-19T09:10:28;24.30;99.90
14006;DHT22;7078;51.542;7.314;2022-08-19T09:13:33;24.30;99.90
14006;DHT22;7078;51.542;7.314;2022-08-19T09:16:10;24.20;99.90
14006;DHT22;7078;51.542;7.314;2022-08-19T09:18:47;24.10;99.90
14006;DHT22;7078;51.542;7.314;2022-08-19T09:21:15;24.20;99.90
14006;DHT22;7078;51.542;7.314;2022-08-19T09:23:40;24.40;99.90
14006;DHT22;7078;51.542;7.314;2022-08-19T09:26:09;24.60;99.90
14006;DHT22;7078;51.542;7.314;2022-08-19T09:28:34;24.70;99.90
14006;DHT22;7078;51.542;7.314;2022-08-19T09:31:00;24.70;99.90
14006;DHT22;7078;51.542;7.314;2022-08-19T09:33:26;24.80;99.90
14006;DHT22;7078;51.542;7.314;2022-08-19T09:36:02;25.20;99.90
14006;DHT22;7078;51.542;7.314;2022-08-19T09:38:28;25.60;99.90
14006;DHT22;7078;51.542;7.314;2022-08-19T09:40:54;25.80;99.90
14006;DHT22;7078;51.542;7.314;2022-08-19T09:43:19;26.00;97.80
14006;DHT22;7078;51.542;7.314;2022-08-19T09:45:45;26.10;97.30
14006;DHT22;7078;51.542;7.314;2022-08-19T09:48:10;25.80;97.40
14006;DHT22;7078;51.542;7.314;2022-08-19T09:50:36;25.70;98.70
14006;DHT22;7078;51.542;7.314;2022-08-19T09:53:03;25.40;99.90
14006;DHT22;7078;51.542;7.314;2022-08-19T09:55:31;25.10;99.90
14006;DHT22;7078;51.542;7.314;2022-08-19T09:57:56;25.00;99.90
14006;DHT22;7078;51.542;7.314;2022-08-19T10:00:22;25.10;99.90
14006;DHT22;7078;51.542;7.314;2022-08-19T10:02:47;25.20;99.90
14006;DHT22;7078;51.542;7.314;2022-08-19T10:05:13;25.60;99.90
14006;DHT22;7078;51.542;7.314;2022-08-19T10:07:57;25.70;99.00
14006;DHT22;7078;51.542;7.314;2022-08-19T10:10:26;25.80;98.10
14006;DHT22;7078;51.542;7.314;2022-08-19T10:32:55;25.50;95.40
14006;DHT22;7078;51.542;7.314;2022-08-19T10:35:21;25.70;94.90
14006;DHT22;7078;51.542;7.314;2022-08-19T10:37:46;25.80;93.60
14006;DHT22;7078;51.542;7.314;2022-08-19T10:40:12;25.80;92.90
14006;DHT22;7078;51.542;7.314;2022-08-19T10:42:38;25.90;92.70
14006;DHT22;7078;51.542;7.314;2022-08-19T10:45:04;26.00;92.10
14006;DHT22;7078;51.542;7.314;2022-08-19T10:47:32;26.00;91.70
14006;DHT22;7078;51.542;7.314;2022-08-19T10:49:57;26.00;91.70
14006;DHT22;7078;51.542;7.314;2022-08-19T10:52:43;26.00;90.50
14006;DHT22;7078;51.542;7.314;2022-08-19T10:55:09;26.00;90.80
14006;DHT22;7078;51.542;7.314;2022-08-19T10:57:53;26.10;90.10
14006;DHT22;7078;51.542;7.314;2022-08-19T11:00:20;26.10;89.50
14006;DHT22;7078;51.542;7.314;2022-08-19T11:02:46;26.00;90.10
14006;DHT22;7078;51.542;7.314;2022-08-19T11:05:12;25.90;90.60
14006;DHT22;7078;51.542;7.314;2022-08-19T11:07:40;25.80;90.80
14006;DHT22;7078;51.542;7.314;2022-08-19T11:10:11;25.70;90.80
14006;DHT22;7078;51.542;7.314;2022-08-19T11:12:39;25.70;90.00
14006;DHT22;7078;51.542;7.314;2022-08-19T11:15:09;25.90;88.70
14006;DHT22;7078;51.542;7.314;2022-08-19T11:17:37;26.10;87.70
14006;DHT22;7078;51.542;7.314;2022-08-19T11:20:06;26.40;83.00
14006;DHT22;7078;51.542;7.314;2022-08-19T11:22:31;26.70;82.60
14006;DHT22;7078;51.542;7.314;2022-08-19T11:24:57;26.90;80.80
14006;DHT22;7078;51.542;7.314;2022-08-19T11:27:23;27.00;80.60
14006;DHT22;7078;51.542;7.314;2022-08-19T11:29:48;26.80;80.10
14006;DHT22;7078;51.542;7.314;2022-08-19T11:32:14;26.80;83.00
14006;DHT22;7078;51.542;7.314;2022-08-19T11:34:40;26.90;82.70
14006;DHT22;7078;51.542;7.314;2022-08-19T11:37:06;26.90;82.70
14006;DHT22;7078;51.542;7.314;2022-08-19T11:39:34;26.80;82.30
14006;DHT22;7078;51.542;7.314;2022-08-19T11:42:01;26.90;81.50
14006;DHT22;7078;51.542;7.314;2022-08-19T11:44:46;27.00;78.60
14006;DHT22;7078;51.542;7.314;2022-08-19T11:47:12;26.90;78.70
14006;DHT22;7078;51.542;7.314;2022-08-19T11:49:38;27.10;79.70
14006;DHT22;7078;51.542;7.314;2022-08-19T11:52:03;27.10;82.40
14006;DHT22;7078;51.542;7.314;2022-08-19T11:54:29;27.00;79.70
14006;DHT22;7078;51.542;7.314;2022-08-19T11:56:54;27.00;82.40
14006;DHT22;7078;51.542;7.314;2022-08-19T11:59:20;27.00;82.00
14006;DHT22;7078;51.542;7.314;2022-08-19T12:01:45;27.20;78.30
14006;DHT22;7078;51.542;7.314;2022-08-19T12:04:11;27.40;78.00
14006;DHT22;7078;51.542;7.314;2022-08-19T12:06:38;27.40;76.10
14006;DHT22;7078;51.542;7.314;2022-08-19T12:09:06;27.40;74.90
14006;DHT22;7078;51.542;7.314;2022-08-19T12:11:33;27.60;75.40
14006;DHT22;7078;51.542;7.314;2022-08-19T12:13:59;27.70;77.20
14006;DHT22;7078;51.542;7.314;2022-08-19T12:16:27;27.60;78.00
14006;DHT22;7078;51.542;7.314;2022-08-19T12:18:54;27.50;77.60
14006;DHT22;7078;51.542;7.314;2022-08-19T12:21:24;27.40;76.20
14006;DHT22;7078;51.542;7.314;2022-08-19T12:23:53;27.40;76.60
14006;DHT22;7078;51.542;7.314;2022-08-19T12:26:20;27.50;76.50
14006;DHT22;7078;51.542;7.314;2022-08-19T12:28:46;27.60;75.60
14006;DHT22;7078;51.542;7.314;2022-08-19T12:31:13;27.40;76.40
14006;DHT22;7078;51.542;7.314;2022-08-19T12:33:41;27.20;79.00
14006;DHT22;7078;51.542;7.314;2022-08-19T12:36:09;27.40;76.80
14006;DHT22;7078;51.542;7.314;2022-08-19T12:38:35;27.40;74.80
14006;DHT22;7078;51.542;7.314;2022-08-19T12:41:01;27.40;74.30
14006;DHT22;7078;51.542;7.314;2022-08-19T12:43:32;27.60;76.00
14006;DHT22;7078;51.542;7.314;2022-08-19T12:45:57;27.40;73.70
14006;DHT22;7078;51.542;7.314;2022-08-19T12:48:23;27.20;74.40
14006;DHT22;7078;51.542;7.314;2022-08-19T12:50:48;27.50;75.50
14006;DHT22;7078;51.542;7.314;2022-08-19T12:53:15;27.80;72.80
14006;DHT22;7078;51.542;7.314;2022-08-19T12:55:41;28.00;69.30
14006;DHT22;7078;51.542;7.314;2022-08-19T12:58:08;28.10;67.90
14006;DHT22;7078;51.542;7.314;2022-08-19T13:00:33;28.00;67.40
14006;DHT22;7078;51.542;7.314;2022-08-19T13:03:00;28.00;66.90
14006;DHT22;7078;51.542;7.314;2022-08-19T13:05:28;27.90;66.00
14006;DHT22;7078;51.542;7.314;2022-08-19T13:07:56;28.00;69.10
14006;DHT22;7078;51.542;7.314;2022-08-19T13:10:24;28.10;68.50
14006;DHT22;7078;51.542;7.314;2022-08-19T13:12:51;28.20;68.50
14006;DHT22;7078;51.542;7.314;2022-08-19T13:15:19;28.10;68.50
14006;DHT22;7078;51.542;7.314;2022-08-19T13:17:47;28.00;67.60
14006;DHT22;7078;51.542;7.314;2022-08-19T13:20:15;28.10;67.80
14006;DHT22;7078;51.542;7.314;2022-08-19T13:22:42;28.20;64.30
14006;DHT22;7078;51.542;7.314;2022-08-19T13:25:08;28.30;64.60
14006;DHT22;7078;51.542;7.314;2022-08-19T13:27:35;28.40;64.90
14006;DHT22;7078;51.542;7.314;2022-08-19T13:30:02;28.40;65.50
14006;DHT22;7078;51.542;7.314;2022-08-19T13:32:47;28.30;64.70
14006;DHT22;7078;51.542;7.314;2022-08-19T13:35:31;28.20;65.10
14006;DHT22;7078;51.542;7.314;2022-08-19T13:37:57;28.00;65.30
14006;DHT22;7078;51.542;7.314;2022-08-19T13:40:24;27.90;65.10
14006;DHT22;7078;51.542;7.314;2022-08-19T13:42:53;28.00;67.50
14006;DHT22;7078;51.542;7.314;2022-08-19T13:45:22;28.10;65.80
14006;DHT22;7078;51.542;7.314;2022-08-19T13:47:49;28.10;67.10
14006;DHT22;7078;51.542;7.314;2022-08-19T13:50:18;28.00;65.80
14006;DHT22;7078;51.542;7.314;2022-08-19T13:52:44;28.10;67.30
14006;DHT22;7078;51.542;7.314;2022-08-19T13:55:11;28.30;66.20
14006;DHT22;7078;51.542;7.314;2022-08-19T13:57:37;28.40;65.30
14006;DHT22;7078;51.542;7.314;2022-08-19T14:00:10;28.50;66.00
14006;DHT22;7078;51.542;7.314;2022-08-19T14:02:37;28.60;64.10
14006;DHT22;7078;51.542;7.314;2022-08-19T14:05:05;28.50;63.60
14006;DHT22;7078;51.542;7.314;2022-08-19T14:07:31;28.50;62.60
14006;DHT22;7078;51.542;7.314;2022-08-19T14:09:57;28.40;62.90
14006;DHT22;7078;51.542;7.314;2022-08-19T14:12:23;28.50;62.60
14006;DHT22;7078;51.542;7.314;2022-08-19T14:14:48;28.60;62.80
14006;DHT22;7078;51.542;7.314;2022-08-19T14:17:14;28.70;62.20
14006;DHT22;7078;51.542;7.314;2022-08-19T14:19:41;28.70;61.60
14006;DHT22;7078;51.542;7.314;2022-08-19T14:22:07;28.60;60.90
14006;DHT22;7078;51.542;7.314;2022-08-19T14:24:33;28.60;61.40
14006;DHT22;7078;51.542;7.314;2022-08-19T14:26:58;28.70;60.50
14006;DHT22;7078;51.542;7.314;2022-08-19T14:29:25;28.70;60.70
14006;DHT22;7078;51.542;7.314;2022-08-19T14:31:50;28.80;60.60
14006;DHT22;7078;51.542;7.314;2022-08-19T14:34:16;28.90;60.40
14006;DHT22;7078;51.542;7.314;2022-08-19T14:36:41;29.10;60.80
14006;DHT22;7078;51.542;7.314;2022-08-19T14:39:08;29.30;60.00
14006;DHT22;7078;51.542;7.314;2022-08-19T14:41:34;29.30;58.90
14006;DHT22;7078;51.542;7.314;2022-08-19T14:44:00;29.40;58.00
14006;DHT22;7078;51.542;7.314;2022-08-19T14:46:28;29.40;57.40
14006;DHT22;7078;51.542;7.314;2022-08-19T14:48:54;29.60;58.10
14006;DHT22;7078;51.542;7.314;2022-08-19T14:51:22;29.70;57.90
14006;DHT22;7078;51.542;7.314;2022-08-19T14:53:49;29.90;57.60
14006;DHT22;7078;51.542;7.314;2022-08-19T14:56:17;30.10;56.50
14006;DHT22;7078;51.542;7.314;2022-08-19T14:58:44;30.30;56.40
14006;DHT22;7078;51.542;7.314;2022-08-19T15:01:10;30.40;56.50
14006;DHT22;7078;51.542;7.314;2022-08-19T15:03:36;30.40;56.60
14006;DHT22;7078;51.542;7.314;2022-08-19T15:06:03;30.40;55.80
14006;DHT22;7078;51.542;7.314;2022-08-19T15:08:31;30.30;56.40
14006;DHT22;7078;51.542;7.314;2022-08-19T15:10:58;30.40;56.00
14006;DHT22;7078;51.542;7.314;2022-08-19T15:13:25;30.30;55.80
14006;DHT22;7078;51.542;7.314;2022-08-19T15:15:52;30.40;56.30
14006;DHT22;7078;51.542;7.314;2022-08-19T15:18:18;30.50;55.90
14006;DHT22;7078;51.542;7.314;2022-08-19T15:20:46;30.70;56.40
14006;DHT22;7078;51.542;7.314;2022-08-19T15:23:16;31.00;56.00
14006;DHT22;7078;51.542;7.314;2022-08-19T15:25:42;31.40;54.60
14006;DHT22;7078;51.542;7.314;2022-08-19T15:28:08;31.60;54.40
14006;DHT22;7078;51.542;7.314;2022-08-19T15:30:37;32.10;53.20
14006;DHT22;7078;51.542;7.314;2022-08-19T15:33:03;32.60;52.20
14006;DHT22;7078;51.542;7.314;2022-08-19T15:35:29;32.30;52.00
14006;DHT22;7078;51.542;7.314;2022-08-19T15:37:55;31.70;52.80
14006;DHT22;7078;51.542;7.314;2022-08-19T15:40:22;31.20;53.40
14006;DHT22;7078;51.542;7.314;2022-08-19T15:42:48;30.60;54.10
14006;DHT22;7078;51.542;7.314;2022-08-19T15:45:16;29.90;55.50
14006;DHT22;7078;51.542;7.314;2022-08-19T15:47:42;29.40;57.50
14006;DHT22;7078;51.542;7.314;2022-08-19T15:50:13;28.90;57.80
14006;DHT22;7078;51.542;7.314;2022-08-19T15:52:48;28.80;58.40
14006;DHT22;7078;51.542;7.314;2022-08-19T15:55:14;29.30;58.90
14006;DHT22;7078;51.542;7.314;2022-08-19T15:57:40;29.10;57.90
14006;DHT22;7078;51.542;7.314;2022-08-19T16:00:24;28.90;58.90
14006;DHT22;7078;51.542;7.314;2022-08-19T16:03:13;28.60;59.90
14006;DHT22;7078;51.542;7.314;2022-08-19T16:05:58;28.50;60.60
14006;DHT22;7078;51.542;7.314;2022-08-19T16:08:42;28.40;60.70
14006;DHT22;7078;51.542;7.314;2022-08-19T16:11:11;28.20;61.90
14006;DHT22;7078;51.542;7.314;2022-08-19T16:13:38;28.50;61.90
14006;DHT22;7078;51.542;7.314;2022-08-19T16:16:04;28.60;61.00
14006;DHT22;7078;51.542;7.314;2022-08-19T16:18:30;28.40;61.30
14006;DHT22;7078;51.542;7.314;2022-08-19T16:20:56;28.10;62.00
14006;DHT22;7078;51.542;7.314;2022-08-19T16:23:21;27.90;63.00
14006;DHT22;7078;51.542;7.314;2022-08-19T16:25:47;27.60;63.80